createdAt,value
2017-10-28T00:00:14.121Z,72.75
2017-10-28T00:00:54.729Z,73.14
2017-10-28T00:01:35.118Z,73.14
2017-10-28T00:02:15.512Z,72.94
2017-10-28T00:02:55.916Z,73.33
2017-10-28T00:03:36.327Z,72.75
2017-10-28T00:04:16.688Z,72.85
2017-10-28T00:04:57.110Z,73
2017-10-28T00:05:37.520Z,73.58
2017-10-28T00:06:18.105Z,73.29
2017-10-28T00:06:58.516Z,73
2017-10-28T00:07:39.018Z,73.29
2017-10-28T00:08:19.460Z,73.39
2017-10-28T00:08:59.888Z,73.39
2017-10-28T00:09:40.393Z,73.86
2017-10-28T00:10:20.923Z,73.29
2017-10-28T00:11:01.290Z,73.77
2017-10-28T00:11:41.694Z,73.48
2017-10-28T00:12:22.167Z,73.86
2017-10-28T00:13:02.533Z,73.58
2017-10-28T00:13:42.920Z,73.48
2017-10-28T00:14:23.325Z,73.29
2017-10-28T00:15:03.726Z,73.58
2017-10-28T00:15:44.155Z,73.39
2017-10-28T00:16:24.542Z,73.14
2017-10-28T00:17:04.907Z,73
2017-10-28T00:17:45.382Z,73.23
2017-10-28T00:18:25.783Z,73.19
2017-10-28T00:19:06.171Z,73.1
2017-10-28T00:19:46.574Z,73.19
2017-10-28T00:20:27.032Z,73.33
2017-10-28T00:21:07.439Z,73.1
2017-10-28T00:21:47.822Z,73.14
2017-10-28T00:22:28.204Z,73.43
2017-10-28T00:23:08.627Z,73.61
2017-10-28T00:23:49.039Z,73.14
2017-10-28T00:24:29.490Z,73.61
2017-10-28T00:25:09.950Z,72.94
2017-10-28T00:25:50.308Z,73.43
2017-10-28T00:26:30.755Z,73.39
2017-10-28T00:27:11.111Z,73.43
2017-10-28T00:27:51.547Z,73.8
2017-10-28T00:28:31.989Z,73.23
2017-10-28T00:29:12.411Z,73.33
2017-10-28T00:29:52.771Z,73.33
2017-10-28T00:30:33.143Z,73.29
2017-10-28T00:31:13.615Z,73.39
2017-10-28T00:31:54.001Z,73.19
2017-10-28T00:32:34.424Z,73.04
2017-10-28T00:33:14.855Z,73.04
2017-10-28T00:33:55.361Z,73.48
2017-10-28T00:34:35.780Z,73
2017-10-28T00:35:16.230Z,72.91
2017-10-28T00:35:56.668Z,73.67
2017-10-28T00:36:37.046Z,73.43
2017-10-28T00:37:17.521Z,72.94
2017-10-28T00:37:57.877Z,73.39
2017-10-28T00:38:38.322Z,73.19
2017-10-28T00:39:18.790Z,72.91
2017-10-28T00:39:59.211Z,73.77
2017-10-28T00:40:39.590Z,73.86
2017-10-28T00:41:20.072Z,73.1
2017-10-28T00:42:00.500Z,74.24
2017-10-28T00:42:40.998Z,73.67
2017-10-28T00:43:21.380Z,73.39
2017-10-28T00:44:01.879Z,73.58
2017-10-28T00:44:42.319Z,73.77
2017-10-28T00:45:22.837Z,74.53
2017-10-28T00:46:03.341Z,74.05
2017-10-28T00:46:43.694Z,74.34
2017-10-28T00:47:24.152Z,74.24
2017-10-28T00:48:04.535Z,74.44
2017-10-28T00:48:44.949Z,73.71
2017-10-28T00:49:25.384Z,73.52
2017-10-28T00:50:05.828Z,73.39
2017-10-28T00:50:46.387Z,73.39
2017-10-28T00:51:26.815Z,73.19
2017-10-28T00:52:07.216Z,74.15
2017-10-28T00:52:47.610Z,74.73
2017-10-28T00:53:28.067Z,74.15
2017-10-28T00:54:08.507Z,73.8
2017-10-28T00:54:48.903Z,73.58
2017-10-28T00:55:29.312Z,73.67
2017-10-28T00:56:09.782Z,73.67
2017-10-28T00:56:50.306Z,73.67
2017-10-28T00:57:30.656Z,73.67
2017-10-28T00:58:11.118Z,73.67
2017-10-28T00:58:51.528Z,73.86
2017-10-28T00:59:31.942Z,74.05
2017-10-28T01:00:12.334Z,73.86
2017-10-28T01:00:52.778Z,73.96
2017-10-28T01:01:33.260Z,74.34
2017-10-28T01:02:13.658Z,73.77
2017-10-28T01:02:54.166Z,74.15
2017-10-28T01:03:34.801Z,74.44
2017-10-28T01:04:15.207Z,74.05
2017-10-28T01:04:55.601Z,73.67
2017-10-28T01:05:36.036Z,73.99
2017-10-28T01:06:16.473Z,73.96
2017-10-28T01:06:56.865Z,73.58
2017-10-28T01:07:37.324Z,73.9
2017-10-28T01:08:17.735Z,73.71
2017-10-28T01:08:58.170Z,73.33
2017-10-28T01:09:38.562Z,73.23
2017-10-28T01:10:18.988Z,73.8
2017-10-28T01:10:59.420Z,73.23
2017-10-28T01:11:39.877Z,73.23
2017-10-28T01:12:20.339Z,73.52
2017-10-28T01:13:00.784Z,73.43
2017-10-28T01:13:41.200Z,73.23
2017-10-28T01:14:21.494Z,73.52
2017-10-28T01:15:01.983Z,73.43
2017-10-28T01:15:42.363Z,73.48
2017-10-28T01:16:22.842Z,73.77
2017-10-28T01:17:03.206Z,74.05
2017-10-28T01:17:43.640Z,74.15
2017-10-28T01:18:24.083Z,73.96
2017-10-28T01:19:04.534Z,74.28
2017-10-28T01:19:44.991Z,73.8
2017-10-28T01:20:25.367Z,73.23
2017-10-28T01:21:05.819Z,73.33
2017-10-28T01:21:46.179Z,73.71
2017-10-28T01:22:26.595Z,73.61
2017-10-28T01:23:06.959Z,73.61
2017-10-28T01:23:47.361Z,73.61
2017-10-28T01:24:27.828Z,73.61
2017-10-28T01:25:08.199Z,73.61
2017-10-28T01:25:48.629Z,73.23
2017-10-28T01:26:29.015Z,73.43
2017-10-28T01:27:09.448Z,73.04
2017-10-28T01:27:49.901Z,73.43
2017-10-28T01:28:30.291Z,73.04
2017-10-28T01:29:10.718Z,73.71
2017-10-28T01:29:51.153Z,73.33
2017-10-28T01:30:31.546Z,73.43
2017-10-28T01:31:11.889Z,73.33
2017-10-28T01:31:52.355Z,73.23
2017-10-28T01:32:32.723Z,73.52
2017-10-28T01:33:13.110Z,73.43
2017-10-28T01:33:53.482Z,72.75
2017-10-28T01:34:33.916Z,73.14
2017-10-28T01:35:14.502Z,72.85
2017-10-28T01:35:54.903Z,73.52
2017-10-28T01:36:35.298Z,73.33
2017-10-28T01:37:15.654Z,73.43
2017-10-28T01:37:56.059Z,73.23
2017-10-28T01:38:36.475Z,72.94
2017-10-28T01:39:16.884Z,73.23
2017-10-28T01:39:57.284Z,73.61
2017-10-28T01:40:37.762Z,73.43
2017-10-28T01:41:18.163Z,73.33
2017-10-28T01:41:58.542Z,73.33
2017-10-28T01:42:38.936Z,72.94
2017-10-28T01:43:19.345Z,72.85
2017-10-28T01:43:59.782Z,73.23
2017-10-28T01:44:40.141Z,73.43
2017-10-28T01:45:20.557Z,73.43
2017-10-28T01:46:01.005Z,73.29
2017-10-28T01:46:41.487Z,73.23
2017-10-28T01:47:21.823Z,73.8
2017-10-28T01:48:02.227Z,73.99
2017-10-28T01:48:42.715Z,73.52
2017-10-28T01:49:23.140Z,73.43
2017-10-28T01:50:03.498Z,73.14
2017-10-28T01:50:43.931Z,72.85
2017-10-28T01:51:24.308Z,73.23
2017-10-28T01:52:04.744Z,73.52
2017-10-28T01:52:45.242Z,73.61
2017-10-28T01:53:25.597Z,73.04
2017-10-28T01:54:06.000Z,73.23
2017-10-28T01:54:46.406Z,73.33
2017-10-28T01:55:26.830Z,73.23
2017-10-28T01:56:07.277Z,73.33
2017-10-28T01:56:47.694Z,73.33
2017-10-28T01:57:28.085Z,73.23
2017-10-28T01:58:08.537Z,73.23
2017-10-28T01:58:49.109Z,72.85
2017-10-28T01:59:29.452Z,73.14
2017-10-28T02:00:10.035Z,72.94
2017-10-28T02:00:50.547Z,73.23
2017-10-28T02:01:30.925Z,73.43
2017-10-28T02:02:11.287Z,73.04
2017-10-28T02:02:51.681Z,73.71
2017-10-28T02:03:32.046Z,73.61
2017-10-28T02:04:12.452Z,73.8
2017-10-28T02:04:52.893Z,73.71
2017-10-28T02:05:33.385Z,73.33
2017-10-28T02:06:13.817Z,73.86
2017-10-28T02:06:54.298Z,74.19
2017-10-28T02:07:34.707Z,73.61
2017-10-28T02:08:15.044Z,73.58
2017-10-28T02:08:55.416Z,74.05
2017-10-28T02:09:35.951Z,74.44
2017-10-28T02:10:16.401Z,74.63
2017-10-28T02:10:56.823Z,75.3
2017-10-28T02:11:37.243Z,75.01
2017-10-28T02:12:17.648Z,74.53
2017-10-28T02:12:58.063Z,74.15
2017-10-28T02:13:38.437Z,74.44
2017-10-28T02:14:18.863Z,74.24
2017-10-28T02:14:59.214Z,74.63
2017-10-28T02:15:39.682Z,74.63
2017-10-28T02:16:20.090Z,74.44
2017-10-28T02:17:00.514Z,75.39
2017-10-28T02:17:40.956Z,75.1
2017-10-28T02:18:21.415Z,74.91
2017-10-28T02:19:01.770Z,75.68
2017-10-28T02:19:42.293Z,75.2
2017-10-28T02:20:22.700Z,75.1
2017-10-28T02:21:03.116Z,74.91
2017-10-28T02:21:43.541Z,75.2
2017-10-28T02:22:23.991Z,74.73
2017-10-28T02:23:04.383Z,74.38
2017-10-28T02:23:44.773Z,74.28
2017-10-28T02:24:25.255Z,74.09
2017-10-28T02:25:05.578Z,73.71
2017-10-28T02:25:46.012Z,74.19
2017-10-28T02:26:26.404Z,74.05
2017-10-28T02:27:06.855Z,73.58
2017-10-28T02:27:47.347Z,74.24
2017-10-28T02:28:27.738Z,74.73
2017-10-28T02:29:08.081Z,74.44
2017-10-28T02:29:48.581Z,74.44
2017-10-28T02:30:28.980Z,74.82
2017-10-28T02:31:09.367Z,74.44
2017-10-28T02:31:49.777Z,74.44
2017-10-28T02:32:30.322Z,74.73
2017-10-28T02:33:10.672Z,74.44
2017-10-28T02:33:51.089Z,75.1
2017-10-28T02:34:31.467Z,74.63
2017-10-28T02:35:11.845Z,73.96
2017-10-28T02:35:52.214Z,74.91
2017-10-28T02:36:32.682Z,74.44
2017-10-28T02:37:13.031Z,74.44
2017-10-28T02:37:53.522Z,74.63
2017-10-28T02:38:33.923Z,74.34
2017-10-28T02:39:14.366Z,74.48
2017-10-28T02:39:54.739Z,73.99
2017-10-28T02:40:35.260Z,73.9
2017-10-28T02:41:15.674Z,73.71
2017-10-28T02:41:56.067Z,73.71
2017-10-28T02:42:36.465Z,73.61
2017-10-28T02:43:16.905Z,73.33
2017-10-28T02:43:57.300Z,73.23
2017-10-28T02:44:38.477Z,73.43
2017-10-28T02:45:18.119Z,73.43
2017-10-28T02:45:58.509Z,73.33
2017-10-28T02:46:38.908Z,72.85
2017-10-28T02:47:19.306Z,73.33
2017-10-28T02:47:59.723Z,73.23
2017-10-28T02:48:40.200Z,73.43
2017-10-28T02:49:20.674Z,73.14
2017-10-28T02:50:01.210Z,73.33
2017-10-28T02:50:41.644Z,73.33
2017-10-28T02:51:22.087Z,72.94
2017-10-28T02:52:02.416Z,72.66
2017-10-28T02:52:42.818Z,72.75
2017-10-28T02:53:23.215Z,72.85
2017-10-28T02:54:03.651Z,72.85
2017-10-28T02:54:44.062Z,73.14
2017-10-28T02:55:24.441Z,72.56
2017-10-28T02:56:04.785Z,72.47
2017-10-28T02:56:45.224Z,72.28
2017-10-28T02:57:25.596Z,72.28
2017-10-28T02:58:06.043Z,72.47
2017-10-28T02:58:46.454Z,72.56
2017-10-28T02:59:26.814Z,72.66
2017-10-28T03:00:07.218Z,73.04
2017-10-28T03:00:47.693Z,72.66
2017-10-28T03:01:28.039Z,72.94
2017-10-28T03:02:08.434Z,72.75
2017-10-28T03:02:48.826Z,72.85
2017-10-28T03:03:29.275Z,72.85
2017-10-28T03:04:09.644Z,73.43
2017-10-28T03:04:50.141Z,73.43
2017-10-28T03:05:30.536Z,72.85
2017-10-28T03:06:10.986Z,72.85
2017-10-28T03:06:51.359Z,72.94
2017-10-28T03:07:31.822Z,73.04
2017-10-28T03:08:12.207Z,72.75
2017-10-28T03:08:52.580Z,73.04
2017-10-28T03:09:33.082Z,72.94
2017-10-28T03:10:13.546Z,72.75
2017-10-28T03:10:53.973Z,72.47
2017-10-28T03:11:34.296Z,72.37
2017-10-28T03:12:14.722Z,72.85
2017-10-28T03:12:55.113Z,72.75
2017-10-28T03:13:35.494Z,73.33
2017-10-28T03:14:16.014Z,72.75
2017-10-28T03:14:56.413Z,72.66
2017-10-28T03:15:36.813Z,72.85
2017-10-28T03:16:17.267Z,72.94
2017-10-28T03:16:57.646Z,73.61
2017-10-28T03:17:38.073Z,73.33
2017-10-28T03:18:18.499Z,72.94
2017-10-28T03:18:58.879Z,72.94
2017-10-28T03:19:39.360Z,73.04
2017-10-28T03:20:19.757Z,72.56
2017-10-28T03:21:00.342Z,72.85
2017-10-28T03:21:40.832Z,72.75
2017-10-28T03:22:21.289Z,73.04
2017-10-28T03:23:01.660Z,72.75
2017-10-28T03:23:42.127Z,73.23
2017-10-28T03:24:22.457Z,73.43
2017-10-28T03:25:03.040Z,73.14
2017-10-28T03:25:43.400Z,73.43
2017-10-28T03:26:23.804Z,73.33
2017-10-28T03:27:04.305Z,73.43
2017-10-28T03:27:44.683Z,72.81
2017-10-28T03:28:25.124Z,73.19
2017-10-28T03:29:05.538Z,73.67
2017-10-28T03:29:45.887Z,73.77
2017-10-28T03:30:26.316Z,73.67
2017-10-28T03:31:06.781Z,74.15
2017-10-28T03:31:47.181Z,73.96
2017-10-28T03:32:27.606Z,73.77
2017-10-28T03:33:08.066Z,73.67
2017-10-28T03:33:48.514Z,74.44
2017-10-28T03:34:28.894Z,73.77
2017-10-28T03:35:09.335Z,73.86
2017-10-28T03:35:49.790Z,73.29
2017-10-28T03:36:30.199Z,73.86
2017-10-28T03:37:10.880Z,73.96
2017-10-28T03:37:51.380Z,74.34
2017-10-28T03:38:31.797Z,73.58
2017-10-28T03:39:12.310Z,74.73
2017-10-28T03:39:52.719Z,74.73
2017-10-28T03:40:33.178Z,74.24
2017-10-28T03:41:13.644Z,74.53
2017-10-28T03:41:54.000Z,73.92
2017-10-28T03:42:34.384Z,74.44
2017-10-28T03:43:14.797Z,74.63
2017-10-28T03:43:55.290Z,74.05
2017-10-28T03:44:35.754Z,73.96
2017-10-28T03:45:16.160Z,73.96
2017-10-28T03:45:56.564Z,74.44
2017-10-28T03:46:37.020Z,74.63
2017-10-28T03:47:17.473Z,74.15
2017-10-28T03:47:57.889Z,73.96
2017-10-28T03:48:38.287Z,73.29
2017-10-28T03:49:18.643Z,73.58
2017-10-28T03:49:59.158Z,73.39
2017-10-28T03:50:39.606Z,73.29
2017-10-28T03:51:19.969Z,73.39
2017-10-28T03:52:00.410Z,72.91
2017-10-28T03:52:40.841Z,72.81
2017-10-28T03:53:21.343Z,73.39
2017-10-28T03:54:01.775Z,73.19
2017-10-28T03:54:42.196Z,73.29
2017-10-28T03:55:22.589Z,73.1
2017-10-28T03:56:03.081Z,73.1
2017-10-28T03:56:43.528Z,73.39
2017-10-28T03:57:24.095Z,73.77
2017-10-28T03:58:04.529Z,73.77
2017-10-28T03:58:45.062Z,74.15
2017-10-28T03:59:25.474Z,73.67
2017-10-28T04:00:05.830Z,73.54
2017-10-28T04:00:46.271Z,73.77
2017-10-28T04:01:26.762Z,74.15
2017-10-28T04:40:59.982Z,79.28
2017-10-28T04:41:40.160Z,79.1
2017-10-28T04:42:20.563Z,78.62
2017-10-28T04:43:00.997Z,79.1
2017-10-28T04:43:41.535Z,78.62
2017-10-28T04:44:21.933Z,79.28
2017-10-28T04:45:02.372Z,78.81
2017-10-28T04:45:42.839Z,78.23
2017-10-28T04:46:23.219Z,78.72
2017-10-28T04:47:03.586Z,79
2017-10-28T04:47:44.019Z,78.91
2017-10-28T04:48:24.420Z,79.28
2017-10-28T04:49:04.856Z,78.62
2017-10-28T04:49:45.342Z,79.19
2017-10-28T04:50:25.758Z,78.72
2017-10-28T04:51:06.167Z,78.81
2017-10-28T04:51:46.581Z,78.14
2017-10-28T04:52:27.006Z,78.43
2017-10-28T04:53:07.400Z,78.43
2017-10-28T04:53:47.807Z,77.99
2017-10-28T04:54:28.232Z,78.09
2017-10-28T04:55:08.678Z,77.61
2017-10-28T04:55:49.042Z,77.13
2017-10-28T04:56:29.481Z,77.03
2017-10-28T04:57:09.800Z,76.79
2017-10-28T04:57:50.277Z,76.08
2017-10-28T04:58:30.671Z,76.56
2017-10-28T04:59:11.125Z,76.18
2017-10-28T04:59:51.494Z,76.37
2017-10-28T05:00:31.874Z,76.31
2017-10-28T05:01:12.273Z,75.74
2017-10-28T05:01:52.710Z,75.74
2017-10-28T05:02:33.123Z,75.54
2017-10-28T05:03:13.472Z,75.54
2017-10-28T05:03:53.920Z,75.83
2017-10-28T05:04:34.308Z,74.3
2017-10-28T05:05:14.733Z,74.59
2017-10-28T05:05:55.240Z,75.16
2017-10-28T05:06:35.748Z,74.98
2017-10-28T05:07:16.164Z,75.35
2017-10-28T05:07:56.594Z,75.07
2017-10-28T05:08:36.977Z,74.98
2017-10-28T05:09:17.387Z,75.45
2017-10-28T05:09:57.804Z,75.16
2017-10-28T05:10:38.200Z,74.59
2017-10-28T05:11:18.570Z,75.16
2017-10-28T05:11:59.094Z,75.07
2017-10-28T05:12:39.548Z,75.07
2017-10-28T05:13:19.962Z,74.3
2017-10-28T05:14:00.364Z,74.3
2017-10-28T05:14:40.687Z,74.59
2017-10-28T05:15:21.155Z,73.92
2017-10-28T05:16:01.785Z,74.11
2017-10-28T05:16:42.263Z,73.54
2017-10-28T05:17:22.622Z,73.54
2017-10-28T05:18:03.110Z,73.44
2017-10-28T05:18:43.549Z,73.25
2017-10-28T05:19:24.018Z,73.44
2017-10-28T05:20:04.426Z,73.54
2017-10-28T05:20:44.888Z,73.25
2017-10-28T05:21:25.320Z,73.16
2017-10-28T05:22:05.806Z,73.16
2017-10-28T05:22:46.165Z,73.25
2017-10-28T05:23:26.618Z,73.44
2017-10-28T05:24:06.922Z,73.25
2017-10-28T05:24:47.399Z,73.35
2017-10-28T05:25:27.820Z,73.16
2017-10-28T05:26:08.196Z,74.02
2017-10-28T05:26:48.565Z,73.25
2017-10-28T05:27:28.944Z,74.21
2017-10-28T05:28:09.371Z,73.92
2017-10-28T05:28:49.819Z,74.4
2017-10-28T05:29:30.239Z,74.3
2017-10-28T05:30:10.673Z,74.17
2017-10-28T05:30:51.155Z,74.46
2017-10-28T05:31:31.515Z,74.27
2017-10-28T05:32:11.951Z,75.03
2017-10-28T05:32:52.402Z,74.55
2017-10-28T05:33:32.927Z,74.55
2017-10-28T05:34:13.260Z,75.42
2017-10-28T05:34:53.724Z,75.32
2017-10-28T05:35:34.136Z,75.13
2017-10-28T05:36:14.617Z,75.13
2017-10-28T05:36:54.938Z,75.13
2017-10-28T05:37:35.408Z,75.42
2017-10-28T05:38:15.810Z,74.93
2017-10-28T05:38:56.228Z,75.51
2017-10-28T05:39:36.709Z,75.22
2017-10-28T05:40:17.104Z,75.51
2017-10-28T05:40:57.540Z,75.89
2017-10-28T05:41:37.999Z,75.7
2017-10-28T05:42:18.339Z,75.51
2017-10-28T05:42:58.771Z,75.89
2017-10-28T05:43:39.199Z,74.84
2017-10-28T05:44:19.625Z,74.93
2017-10-28T05:45:00.062Z,74.93
2017-10-28T05:45:40.384Z,75.22
2017-10-28T05:46:20.828Z,76.18
2017-10-28T05:47:01.301Z,75.6
2017-10-28T05:47:41.679Z,75.7
2017-10-28T05:48:22.074Z,75.03
2017-10-28T05:49:02.538Z,74.93
2017-10-28T05:49:42.857Z,75.32
2017-10-28T05:50:23.323Z,74.93
2017-10-28T05:51:03.712Z,75.32
2017-10-28T05:51:44.036Z,75.03
2017-10-28T05:52:24.543Z,74.55
2017-10-28T05:53:05.022Z,74.46
2017-10-28T05:53:45.480Z,74.55
2017-10-28T05:54:25.809Z,75.22
2017-10-28T05:55:06.232Z,74.46
2017-10-28T05:55:46.674Z,74.46
2017-10-28T05:56:27.164Z,75.51
2017-10-28T05:57:07.501Z,75.03
2017-10-28T05:57:47.892Z,75.37
2017-10-28T05:58:28.303Z,75.66
2017-10-28T05:59:08.740Z,75.47
2017-10-28T05:59:49.099Z,75.6
2017-10-28T06:00:29.521Z,75.37
2017-10-28T06:01:10.020Z,75.18
2017-10-28T06:01:50.433Z,75.57
2017-10-28T06:02:30.797Z,75.09
2017-10-28T06:03:11.169Z,76.04
2017-10-28T06:03:51.569Z,75.57
2017-10-28T06:04:32.179Z,75.47
2017-10-28T06:05:12.488Z,75.85
2017-10-28T06:05:52.984Z,76.42
2017-10-28T06:06:33.350Z,76.62
2017-10-28T06:07:13.734Z,76.14
2017-10-28T06:07:54.102Z,75.76
2017-10-28T06:08:34.588Z,75.18
2017-10-28T06:09:14.987Z,75.85
2017-10-28T06:09:55.475Z,75.66
2017-10-28T06:10:35.850Z,76.42
2017-10-28T06:11:16.240Z,75.47
2017-10-28T06:11:56.765Z,75.47
2017-10-28T06:12:37.223Z,75.85
2017-10-28T06:13:17.596Z,75.76
2017-10-28T06:13:58.008Z,75.57
2017-10-28T06:14:38.369Z,75.66
2017-10-28T06:15:18.713Z,75.57
2017-10-28T06:15:59.220Z,75.47
2017-10-28T06:16:39.601Z,76.23
2017-10-28T06:17:20.043Z,76.14
2017-10-28T06:18:00.401Z,75.66
2017-10-28T06:18:40.824Z,75.57
2017-10-28T06:19:21.247Z,75.66
2017-10-28T06:20:01.681Z,75.42
2017-10-28T06:20:42.059Z,74.93
2017-10-28T06:21:22.492Z,75.03
2017-10-28T06:22:03.037Z,75.13
2017-10-28T06:22:43.392Z,75.13
2017-10-28T06:23:23.774Z,74.74
2017-10-28T06:24:04.250Z,73.98
2017-10-28T06:24:44.632Z,73.98
2017-10-28T06:25:25.061Z,74.74
2017-10-28T06:26:05.439Z,74.46
2017-10-28T06:26:45.872Z,75.03
2017-10-28T06:27:26.245Z,74.46
2017-10-28T06:28:06.675Z,74.37
2017-10-28T06:28:47.063Z,74.65
2017-10-28T06:29:27.412Z,74.17
2017-10-28T06:30:07.817Z,73.6
2017-10-28T06:30:48.228Z,74.37
2017-10-28T06:31:28.645Z,73.41
2017-10-28T06:32:09.053Z,73.98
2017-10-28T06:32:49.377Z,74.55
2017-10-28T06:33:29.801Z,74.27
2017-10-28T06:34:10.179Z,73.88
2017-10-28T06:34:50.592Z,74.55
2017-10-28T06:35:31.044Z,74.08
2017-10-28T06:36:11.480Z,74.46
2017-10-28T06:36:51.857Z,75.18
2017-10-28T06:37:32.236Z,75.18
2017-10-28T06:38:12.624Z,74.42
2017-10-28T06:38:53.115Z,75.66
2017-10-28T06:39:33.558Z,74.71
2017-10-28T06:40:13.946Z,74.9
2017-10-28T06:40:54.411Z,75.28
2017-10-28T06:41:34.839Z,75.66
2017-10-28T06:42:15.273Z,74.71
2017-10-28T06:42:55.705Z,75.18
2017-10-28T06:43:36.107Z,74.9
2017-10-28T06:44:16.603Z,74.37
2017-10-28T06:44:57.070Z,74.84
2017-10-28T06:45:37.514Z,74.17
2017-10-28T06:46:17.924Z,73.6
2017-10-28T06:46:58.317Z,73.6
2017-10-28T06:47:38.656Z,74.27
2017-10-28T06:48:19.055Z,73.98
2017-10-28T06:48:59.522Z,73.41
2017-10-28T06:49:39.937Z,73.6
2017-10-28T06:50:20.334Z,73.22
2017-10-28T06:51:00.790Z,72.93
2017-10-28T06:51:41.167Z,73.5
2017-10-28T06:52:21.622Z,73.98
2017-10-28T06:53:02.051Z,73.5
2017-10-28T06:53:42.437Z,73.98
2017-10-28T06:54:22.877Z,73.6
2017-10-28T06:55:03.220Z,73.79
2017-10-28T06:55:43.714Z,73.32
2017-10-28T06:56:24.088Z,73.41
2017-10-28T06:57:04.497Z,73.12
2017-10-28T06:57:44.856Z,72.83
2017-10-28T06:58:25.537Z,73.32
2017-10-28T06:59:05.813Z,73.32
2017-10-28T06:59:46.182Z,73.41
2017-10-28T07:00:26.595Z,73.16
2017-10-28T07:01:07.051Z,72.78
2017-10-28T07:01:47.433Z,72.58
2017-10-28T07:02:27.890Z,72.49
2017-10-28T07:03:08.295Z,72.39
2017-10-28T07:03:49.551Z,72.64
2017-10-28T07:04:29.995Z,73.32
2017-10-28T07:05:11.377Z,73.12
2017-10-28T07:05:51.876Z,73.12
2017-10-28T07:06:32.254Z,73.41
2017-10-28T07:07:12.716Z,72.93
2017-10-28T07:07:52.985Z,72.83
2017-10-28T07:08:33.507Z,73.35
2017-10-28T07:09:13.950Z,72.58
2017-10-28T07:09:54.311Z,72.39
2017-10-28T07:10:34.771Z,72.45
2017-10-28T07:11:15.160Z,72.36
2017-10-28T07:11:55.594Z,72.55
2017-10-28T07:12:38.420Z,72.26
2017-10-28T07:13:18.854Z,72.97
2017-10-28T07:14:00.214Z,72.78
2017-10-28T07:14:41.232Z,72.07
2017-10-28T07:15:21.511Z,71.88
2017-10-28T07:16:02.081Z,71.53
2017-10-28T07:16:43.000Z,71.88
2017-10-28T07:17:23.556Z,71.59
2017-10-28T07:18:03.916Z,72.26
2017-10-28T07:18:44.347Z,72.64
2017-10-28T07:19:24.839Z,72.3
2017-10-28T07:20:05.383Z,72.11
2017-10-28T07:20:47.012Z,71.53
2017-10-28T07:21:28.421Z,70.96
2017-10-28T07:22:08.889Z,71.5
2017-10-28T07:22:49.223Z,71.72
2017-10-28T07:23:30.642Z,71.92
2017-10-28T07:24:14.029Z,71.63
2017-10-28T07:24:54.384Z,71.72
2017-10-28T07:25:34.932Z,71.06
2017-10-28T07:26:15.408Z,71.15
2017-10-28T07:26:56.072Z,70.39
2017-10-28T07:27:36.841Z,70.01
2017-10-28T07:28:17.261Z,70.2
2017-10-28T07:28:58.415Z,70.39
2017-10-28T07:29:38.930Z,70.67
2017-10-28T07:30:19.387Z,70.01
2017-10-28T07:30:59.862Z,69.72
2017-10-28T07:31:40.294Z,69.72
2017-10-28T07:32:20.632Z,69.72
2017-10-28T07:33:01.039Z,70.01
2017-10-28T07:33:41.669Z,69.43
2017-10-28T07:34:22.182Z,69.43
2017-10-28T07:35:02.667Z,69.91
2017-10-28T07:35:43.648Z,70.48
2017-10-28T07:36:24.051Z,70.48
2017-10-28T07:37:04.920Z,70.39
2017-10-28T07:37:46.136Z,69.34
2017-10-28T07:38:31.386Z,69.62
2017-10-28T07:39:11.723Z,70.01
2017-10-28T07:39:52.535Z,69.72
2017-10-28T07:40:32.948Z,69.53
2017-10-28T07:41:13.508Z,69.53
2017-10-28T07:41:53.928Z,69.62
2017-10-28T07:42:34.467Z,70.14
2017-10-28T07:43:14.767Z,69.72
2017-10-28T07:43:55.154Z,69.66
2017-10-28T07:44:35.507Z,69.34
2017-10-28T07:45:15.997Z,69.53
2017-10-28T07:45:56.461Z,69.53
2017-10-28T07:46:36.900Z,69.66
2017-10-28T07:47:17.354Z,69.05
2017-10-28T07:47:57.852Z,69.85
2017-10-28T07:48:38.611Z,69.76
2017-10-28T07:49:19.024Z,68.99
2017-10-28T07:49:59.924Z,69.43
2017-10-28T07:50:40.119Z,69.85
2017-10-28T07:51:22.558Z,68.99
2017-10-28T07:52:03.869Z,69.47
2017-10-28T07:52:44.455Z,69.47
2017-10-28T07:53:25.122Z,69.09
2017-10-28T07:54:06.732Z,69.09
2017-10-28T07:54:46.814Z,68.7
2017-10-28T07:55:27.383Z,69.18
2017-10-28T07:56:07.764Z,69.37
2017-10-28T07:56:48.172Z,68.51
2017-10-28T07:57:29.657Z,69.09
2017-10-28T07:58:09.851Z,68.99
2017-10-28T07:58:50.954Z,68.99
2017-10-28T07:59:31.544Z,69.27
2017-10-28T08:00:11.920Z,68.61
2017-10-28T08:00:52.467Z,68.04
2017-10-28T08:01:32.813Z,68.13
2017-10-28T08:02:14.002Z,68.32
2017-10-28T08:02:54.346Z,67.55
2017-10-28T08:03:34.893Z,68.13
2017-10-28T08:04:16.503Z,68.32
2017-10-28T08:04:57.161Z,68.13
2017-10-28T08:05:37.687Z,68.32
2017-10-28T08:06:18.819Z,68.13
2017-10-28T08:06:59.164Z,67.55
2017-10-28T08:07:39.564Z,68.32
2017-10-28T08:08:20.543Z,68.13
2017-10-28T08:09:00.946Z,68.13
2017-10-28T08:09:42.203Z,67.55
2017-10-28T08:10:22.691Z,67.55
2017-10-28T08:11:03.834Z,67.46
2017-10-28T08:11:45.261Z,67.75
2017-10-28T08:12:25.469Z,67.84
2017-10-28T08:13:06.078Z,66.99
2017-10-28T08:13:47.779Z,67.36
2017-10-28T08:14:29.267Z,67.78
2017-10-28T08:15:10.361Z,67.21
2017-10-28T08:15:51.741Z,67.21
2017-10-28T08:16:32.358Z,67.11
2017-10-28T08:17:12.819Z,66.35
2017-10-28T08:17:54.720Z,66.73
2017-10-28T08:18:36.121Z,66.89
2017-10-28T08:19:17.327Z,67.46
2017-10-28T08:19:58.984Z,67.08
2017-10-28T08:20:39.577Z,66.89
2017-10-28T08:21:21.750Z,67.46
2017-10-28T08:22:02.054Z,67.84
2017-10-28T08:22:42.719Z,67.55
2017-10-28T08:23:23.470Z,67.75
2017-10-28T08:24:04.579Z,67.59
2017-10-28T08:24:45.542Z,67.08
2017-10-28T08:30:59.422Z,66.79
2017-10-28T08:31:53.175Z,67.3
2017-10-28T08:34:20.712Z,67.18
2017-10-28T08:35:08.819Z,66.99
2017-10-28T08:35:49.331Z,67.18
2017-10-28T08:36:29.762Z,68.23
2017-10-28T08:37:12.167Z,68.13
2017-10-28T08:37:52.447Z,68.04
2017-10-28T08:38:34.256Z,68.32
2017-10-28T08:39:15.076Z,68.04
2017-10-28T08:39:55.640Z,68.35
2017-10-28T08:40:36.255Z,67.78
2017-10-28T08:41:16.716Z,67.59
2017-10-28T08:41:57.341Z,67.49
2017-10-28T08:42:39.069Z,67.3
2017-10-28T08:43:20.577Z,66.99
2017-10-28T08:44:00.791Z,67.36
2017-10-28T08:44:41.223Z,67.65
2017-10-28T08:45:22.669Z,67.65
2017-10-28T08:46:03.054Z,67.75
2017-10-28T08:46:43.552Z,68.04
2017-10-28T08:47:23.904Z,67.65
2017-10-28T08:48:04.508Z,67.69
2017-10-28T08:48:46.508Z,67.59
2017-10-28T08:49:27.564Z,67.3
2017-10-28T08:50:08.062Z,67.97
2017-10-28T08:50:48.377Z,67.69
2017-10-28T08:51:29.164Z,67.69
2017-10-28T08:52:09.413Z,66.92
2017-10-28T08:52:49.934Z,66.79
2017-10-28T08:53:31.420Z,66.99
2017-10-28T08:54:12.880Z,67.84
2017-10-28T08:54:53.179Z,67.65
2017-10-28T08:55:33.659Z,68.04
2017-10-28T08:56:14.147Z,67.75
2017-10-28T08:56:54.621Z,67.49
2017-10-28T08:57:36.518Z,67.78
2017-10-28T08:58:20.107Z,66.92
2017-10-28T08:59:00.352Z,67.02
2017-10-28T08:59:40.800Z,66.54
2017-10-28T09:00:21.353Z,66.44
2017-10-28T09:01:01.823Z,65.97
2017-10-28T09:01:42.146Z,65.71
2017-10-28T09:02:22.864Z,65.42
2017-10-28T09:03:03.740Z,64.95
2017-10-28T09:03:44.590Z,65.23
2017-10-28T09:04:25.081Z,65.52
2017-10-28T09:05:06.198Z,65.14
2017-10-28T09:05:46.754Z,65.04
2017-10-28T09:06:27.458Z,65.14
2017-10-28T09:07:08.918Z,65.42
2017-10-28T09:07:51.292Z,65.3
2017-10-28T09:08:31.730Z,65.3
2017-10-28T09:09:12.722Z,65.2
2017-10-28T09:09:53.637Z,66.06
2017-10-28T09:10:36.071Z,65.87
2017-10-28T09:11:16.224Z,66.54
2017-10-28T09:11:56.957Z,66.06
2017-10-28T09:12:41.938Z,66.54
2017-10-28T09:16:09.894Z,67.11
2017-10-28T09:16:56.391Z,66.54
2017-10-28T09:17:41.559Z,66.06
2017-10-28T09:18:23.694Z,66.63
2017-10-28T09:19:04.077Z,66.35
2017-10-28T09:19:45.364Z,67.21
2017-10-28T09:20:25.844Z,66.25
2017-10-28T09:21:07.353Z,65.87
2017-10-28T09:21:47.666Z,66.44
2017-10-28T09:22:30.440Z,65.77
2017-10-28T09:23:11.931Z,66.63
2017-10-28T09:23:52.758Z,66.92
2017-10-28T09:24:33.310Z,67.46
2017-10-28T09:25:13.739Z,67.55
2017-10-28T09:25:54.062Z,67.08
2017-10-28T09:26:34.937Z,67.84
2017-10-28T09:27:15.375Z,68.13
2017-10-28T09:27:55.769Z,67.65
2017-10-28T09:28:36.180Z,67.94
2017-10-28T09:29:16.544Z,68.13
2017-10-28T09:29:57.156Z,68.04
2017-10-28T09:30:37.618Z,68.04
2017-10-28T09:31:18.244Z,68.32
2017-10-28T09:31:58.812Z,68.04
2017-10-28T09:32:39.085Z,68.04